sensor_id;sensor_type;location;lat;lon;timestamp;P1;durP1;ratioP1;P2;durP2;ratioP2
39958;SDS011;25639;53.634;9.880;2022-07-09T00:01:27;17.67;;;4.55;;
39958;SDS011;25639;53.634;9.880;2022-07-09T00:03:52;16.05;;;4.45;;
39958;SDS011;25639;53.634;9.880;2022-07-09T00:06:18;13.80;;;4.70;;
39958;SDS011;25639;53.634;9.880;2022-07-09T00:08:43;20.73;;;4.57;;
39958;SDS011;25639;53.634;9.880;2022-07-09T00:11:09;15.80;;;4.47;;
39958;SDS011;25639;53.634;9.880;2022-07-09T00:13:34;21.38;;;4.75;;
39958;SDS011;25639;53.634;9.880;2022-07-09T00:15:59;16.50;;;4.68;;
39958;SDS011;25639;53.634;9.880;2022-07-09T00:18:25;17.65;;;4.57;;
39958;SDS011;25639;53.634;9.880;2022-07-09T00:20:50;15.98;;;4.32;;
39958;SDS011;25639;53.634;9.880;2022-07-09T00:23:15;15.43;;;4.22;;
39958;SDS011;25639;53.634;9.880;2022-07-09T00:25:41;11.57;;;3.97;;
39958;SDS011;25639;53.634;9.880;2022-07-09T00:28:06;21.08;;;5.22;;
39958;SDS011;25639;53.634;9.880;2022-07-09T00:30:31;18.80;;;4.70;;
39958;SDS011;25639;53.634;9.880;2022-07-09T00:32:56;20.50;;;5.00;;
39958;SDS011;25639;53.634;9.880;2022-07-09T00:35:22;17.27;;;4.63;;
39958;SDS011;25639;53.634;9.880;2022-07-09T00:37:47;17.90;;;5.22;;
39958;SDS011;25639;53.634;9.880;2022-07-09T00:40:12;15.90;;;4.57;;
39958;SDS011;25639;53.634;9.880;2022-07-09T00:42:38;17.92;;;3.83;;
39958;SDS011;25639;53.634;9.880;2022-07-09T00:45:03;18.67;;;4.72;;
39958;SDS011;25639;53.634;9.880;2022-07-09T00:47:29;22.77;;;5.03;;
39958;SDS011;25639;53.634;9.880;2022-07-09T00:49:55;17.92;;;4.70;;
39958;SDS011;25639;53.634;9.880;2022-07-09T00:52:20;18.10;;;4.82;;
39958;SDS011;25639;53.634;9.880;2022-07-09T00:54:46;18.52;;;4.90;;
39958;SDS011;25639;53.634;9.880;2022-07-09T00:57:11;17.52;;;4.93;;
39958;SDS011;25639;53.634;9.880;2022-07-09T00:59:38;14.98;;;4.63;;
39958;SDS011;25639;53.634;9.880;2022-07-09T01:02:05;16.55;;;5.25;;
39958;SDS011;25639;53.634;9.880;2022-07-09T01:04:32;20.98;;;5.20;;
39958;SDS011;25639;53.634;9.880;2022-07-09T01:06:57;16.08;;;4.75;;
39958;SDS011;25639;53.634;9.880;2022-07-09T01:09:26;19.52;;;5.22;;
39958;SDS011;25639;53.634;9.880;2022-07-09T01:11:52;21.25;;;4.65;;
39958;SDS011;25639;53.634;9.880;2022-07-09T01:14:18;18.63;;;5.13;;
39958;SDS011;25639;53.634;9.880;2022-07-09T01:16:43;15.38;;;4.95;;
39958;SDS011;25639;53.634;9.880;2022-07-09T01:19:08;20.80;;;5.05;;
39958;SDS011;25639;53.634;9.880;2022-07-09T01:21:34;15.93;;;4.80;;
39958;SDS011;25639;53.634;9.880;2022-07-09T01:23:59;21.55;;;5.68;;
39958;SDS011;25639;53.634;9.880;2022-07-09T01:26:25;20.17;;;4.78;;
39958;SDS011;25639;53.634;9.880;2022-07-09T01:28:51;22.17;;;5.72;;
39958;SDS011;25639;53.634;9.880;2022-07-09T01:31:16;16.73;;;5.38;;
39958;SDS011;25639;53.634;9.880;2022-07-09T01:33:41;17.63;;;4.72;;
39958;SDS011;25639;53.634;9.880;2022-07-09T01:36:07;20.60;;;5.35;;
39958;SDS011;25639;53.634;9.880;2022-07-09T01:38:33;18.17;;;5.07;;
39958;SDS011;25639;53.634;9.880;2022-07-09T01:40:58;19.17;;;5.47;;
39958;SDS011;25639;53.634;9.880;2022-07-09T01:43:24;20.42;;;5.45;;
39958;SDS011;25639;53.634;9.880;2022-07-09T01:45:50;15.95;;;5.30;;
39958;SDS011;25639;53.634;9.880;2022-07-09T01:48:15;16.63;;;5.35;;
39958;SDS011;25639;53.634;9.880;2022-07-09T01:50:41;19.25;;;4.90;;
39958;SDS011;25639;53.634;9.880;2022-07-09T01:53:06;16.30;;;5.28;;
39958;SDS011;25639;53.634;9.880;2022-07-09T01:55:31;20.30;;;4.78;;
39958;SDS011;25639;53.634;9.880;2022-07-09T01:57:57;20.95;;;5.10;;
39958;SDS011;25639;53.634;9.880;2022-07-09T02:00:22;18.95;;;5.28;;
39958;SDS011;25639;53.634;9.880;2022-07-09T02:02:48;15.48;;;5.45;;
39958;SDS011;25639;53.634;9.880;2022-07-09T02:05:13;16.88;;;4.53;;
39958;SDS011;25639;53.634;9.880;2022-07-09T02:07:39;18.73;;;5.72;;
39958;SDS011;25639;53.634;9.880;2022-07-09T02:10:05;18.90;;;5.03;;
39958;SDS011;25639;53.634;9.880;2022-07-09T02:12:31;19.25;;;4.43;;
39958;SDS011;25639;53.634;9.880;2022-07-09T02:14:56;18.45;;;5.57;;
39958;SDS011;25639;53.634;9.880;2022-07-09T02:17:21;17.25;;;5.28;;
39958;SDS011;25639;53.634;9.880;2022-07-09T02:19:47;15.90;;;4.85;;
39958;SDS011;25639;53.634;9.880;2022-07-09T02:22:12;17.77;;;4.95;;
39958;SDS011;25639;53.634;9.880;2022-07-09T02:24:37;16.17;;;4.78;;
39958;SDS011;25639;53.634;9.880;2022-07-09T02:27:03;31.55;;;6.13;;
39958;SDS011;25639;53.634;9.880;2022-07-09T02:29:28;17.02;;;5.47;;
39958;SDS011;25639;53.634;9.880;2022-07-09T02:31:54;16.85;;;4.47;;
39958;SDS011;25639;53.634;9.880;2022-07-09T02:34:20;12.85;;;4.65;;
39958;SDS011;25639;53.634;9.880;2022-07-09T02:36:46;15.95;;;5.57;;
39958;SDS011;25639;53.634;9.880;2022-07-09T02:39:11;18.50;;;4.30;;
39958;SDS011;25639;53.634;9.880;2022-07-09T02:41:36;18.33;;;5.25;;
39958;SDS011;25639;53.634;9.880;2022-07-09T02:44:01;13.25;;;5.03;;
39958;SDS011;25639;53.634;9.880;2022-07-09T02:46:27;16.63;;;4.65;;
39958;SDS011;25639;53.634;9.880;2022-07-09T02:48:52;17.35;;;4.45;;
39958;SDS011;25639;53.634;9.880;2022-07-09T02:51:17;14.25;;;4.78;;
39958;SDS011;25639;53.634;9.880;2022-07-09T02:53:43;16.92;;;4.93;;
39958;SDS011;25639;53.634;9.880;2022-07-09T02:56:08;17.17;;;4.80;;
39958;SDS011;25639;53.634;9.880;2022-07-09T02:58:34;16.27;;;4.82;;
39958;SDS011;25639;53.634;9.880;2022-07-09T03:00:59;16.20;;;4.90;;
39958;SDS011;25639;53.634;9.880;2022-07-09T03:03:24;18.48;;;5.10;;
39958;SDS011;25639;53.634;9.880;2022-07-09T03:05:51;18.77;;;4.78;;
39958;SDS011;25639;53.634;9.880;2022-07-09T03:08:16;19.25;;;5.65;;
39958;SDS011;25639;53.634;9.880;2022-07-09T03:10:43;19.58;;;5.20;;
39958;SDS011;25639;53.634;9.880;2022-07-09T03:13:08;16.92;;;4.80;;
39958;SDS011;25639;53.634;9.880;2022-07-09T03:15:33;18.35;;;5.05;;
39958;SDS011;25639;53.634;9.880;2022-07-09T03:17:59;15.70;;;5.10;;
39958;SDS011;25639;53.634;9.880;2022-07-09T03:20:24;13.88;;;4.95;;
39958;SDS011;25639;53.634;9.880;2022-07-09T03:22:49;15.05;;;4.97;;
39958;SDS011;25639;53.634;9.880;2022-07-09T03:25:15;15.30;;;5.15;;
39958;SDS011;25639;53.634;9.880;2022-07-09T03:27:40;13.88;;;4.97;;
39958;SDS011;25639;53.634;9.880;2022-07-09T03:30:05;14.93;;;4.70;;
39958;SDS011;25639;53.634;9.880;2022-07-09T03:32:31;22.40;;;5.90;;
39958;SDS011;25639;53.634;9.880;2022-07-09T03:34:56;17.02;;;5.70;;
39958;SDS011;25639;53.634;9.880;2022-07-09T03:37:22;21.25;;;6.47;;
39958;SDS011;25639;53.634;9.880;2022-07-09T03:39:47;21.10;;;5.75;;
39958;SDS011;25639;53.634;9.880;2022-07-09T03:42:13;14.57;;;5.63;;
39958;SDS011;25639;53.634;9.880;2022-07-09T03:44:39;18.65;;;5.47;;
39958;SDS011;25639;53.634;9.880;2022-07-09T03:47:05;17.30;;;5.95;;
39958;SDS011;25639;53.634;9.880;2022-07-09T03:49:31;17.17;;;5.63;;
39958;SDS011;25639;53.634;9.880;2022-07-09T03:51:57;17.70;;;6.05;;
39958;SDS011;25639;53.634;9.880;2022-07-09T03:54:23;17.80;;;6.32;;
39958;SDS011;25639;53.634;9.880;2022-07-09T03:56:48;17.05;;;6.25;;
39958;SDS011;25639;53.634;9.880;2022-07-09T03:59:14;13.30;;;5.43;;
39958;SDS011;25639;53.634;9.880;2022-07-09T04:01:40;19.77;;;5.93;;
39958;SDS011;25639;53.634;9.880;2022-07-09T04:04:05;18.48;;;5.32;;
39958;SDS011;25639;53.634;9.880;2022-07-09T04:06:30;20.90;;;6.07;;
39958;SDS011;25639;53.634;9.880;2022-07-09T04:08:56;13.40;;;5.22;;
39958;SDS011;25639;53.634;9.880;2022-07-09T04:11:21;14.48;;;5.00;;
39958;SDS011;25639;53.634;9.880;2022-07-09T04:13:46;14.15;;;5.82;;
39958;SDS011;25639;53.634;9.880;2022-07-09T04:16:12;18.02;;;6.15;;
39958;SDS011;25639;53.634;9.880;2022-07-09T04:18:37;12.65;;;5.45;;
39958;SDS011;25639;53.634;9.880;2022-07-09T04:21:02;13.90;;;5.63;;
39958;SDS011;25639;53.634;9.880;2022-07-09T04:23:28;13.55;;;5.78;;
39958;SDS011;25639;53.634;9.880;2022-07-09T04:25:53;16.98;;;5.93;;
39958;SDS011;25639;53.634;9.880;2022-07-09T04:28:21;20.42;;;6.15;;
39958;SDS011;25639;53.634;9.880;2022-07-09T04:30:47;15.48;;;5.60;;
39958;SDS011;25639;53.634;9.880;2022-07-09T04:33:12;16.02;;;5.22;;
39958;SDS011;25639;53.634;9.880;2022-07-09T04:35:38;14.57;;;5.38;;
39958;SDS011;25639;53.634;9.880;2022-07-09T04:38:04;17.58;;;5.85;;
39958;SDS011;25639;53.634;9.880;2022-07-09T04:40:29;16.58;;;5.25;;
39958;SDS011;25639;53.634;9.880;2022-07-09T04:42:55;14.77;;;5.07;;
39958;SDS011;25639;53.634;9.880;2022-07-09T04:45:21;16.63;;;5.25;;
39958;SDS011;25639;53.634;9.880;2022-07-09T04:47:46;15.70;;;5.00;;
39958;SDS011;25639;53.634;9.880;2022-07-09T04:50:11;11.68;;;5.38;;
39958;SDS011;25639;53.634;9.880;2022-07-09T04:52:37;18.55;;;5.53;;
39958;SDS011;25639;53.634;9.880;2022-07-09T04:55:04;12.50;;;5.15;;
39958;SDS011;25639;53.634;9.880;2022-07-09T04:57:30;17.17;;;5.43;;
39958;SDS011;25639;53.634;9.880;2022-07-09T04:59:58;18.58;;;5.55;;
39958;SDS011;25639;53.634;9.880;2022-07-09T05:02:24;16.17;;;5.50;;
39958;SDS011;25639;53.634;9.880;2022-07-09T05:04:50;13.50;;;5.35;;
39958;SDS011;25639;53.634;9.880;2022-07-09T05:07:15;16.92;;;5.20;;
39958;SDS011;25639;53.634;9.880;2022-07-09T05:09:41;14.55;;;4.75;;
39958;SDS011;25639;53.634;9.880;2022-07-09T05:12:06;11.70;;;4.85;;
39958;SDS011;25639;53.634;9.880;2022-07-09T05:14:33;12.38;;;5.18;;
39958;SDS011;25639;53.634;9.880;2022-07-09T05:16:59;13.52;;;4.82;;
39958;SDS011;25639;53.634;9.880;2022-07-09T05:19:24;10.98;;;4.63;;
39958;SDS011;25639;53.634;9.880;2022-07-09T05:21:49;14.10;;;4.60;;
39958;SDS011;25639;53.634;9.880;2022-07-09T05:24:15;9.95;;;4.05;;
39958;SDS011;25639;53.634;9.880;2022-07-09T05:26:40;9.75;;;4.63;;
39958;SDS011;25639;53.634;9.880;2022-07-09T05:29:05;14.38;;;4.63;;
39958;SDS011;25639;53.634;9.880;2022-07-09T05:31:31;10.65;;;4.38;;
39958;SDS011;25639;53.634;9.880;2022-07-09T05:33:56;11.52;;;4.07;;
39958;SDS011;25639;53.634;9.880;2022-07-09T05:36:21;11.25;;;4.18;;
39958;SDS011;25639;53.634;9.880;2022-07-09T05:38:47;15.10;;;4.28;;
39958;SDS011;25639;53.634;9.880;2022-07-09T05:41:12;11.90;;;4.35;;
39958;SDS011;25639;53.634;9.880;2022-07-09T05:43:39;15.48;;;4.88;;
39958;SDS011;25639;53.634;9.880;2022-07-09T05:46:04;10.50;;;4.43;;
39958;SDS011;25639;53.634;9.880;2022-07-09T05:48:30;12.05;;;3.92;;
39958;SDS011;25639;53.634;9.880;2022-07-09T05:50:55;13.10;;;4.50;;
39958;SDS011;25639;53.634;9.880;2022-07-09T05:53:21;11.45;;;4.38;;
39958;SDS011;25639;53.634;9.880;2022-07-09T05:55:46;11.85;;;4.40;;
39958;SDS011;25639;53.634;9.880;2022-07-09T05:58:12;14.35;;;4.25;;
39958;SDS011;25639;53.634;9.880;2022-07-09T06:00:37;16.50;;;4.28;;
39958;SDS011;25639;53.634;9.880;2022-07-09T06:03:03;9.57;;;4.75;;
39958;SDS011;25639;53.634;9.880;2022-07-09T06:05:28;13.45;;;5.43;;
39958;SDS011;25639;53.634;9.880;2022-07-09T06:07:54;10.50;;;4.57;;
39958;SDS011;25639;53.634;9.880;2022-07-09T06:10:19;14.88;;;5.07;;
39958;SDS011;25639;53.634;9.880;2022-07-09T06:12:45;11.98;;;5.05;;
39958;SDS011;25639;53.634;9.880;2022-07-09T06:15:10;15.15;;;4.78;;
39958;SDS011;25639;53.634;9.880;2022-07-09T06:17:36;12.02;;;4.72;;
39958;SDS011;25639;53.634;9.880;2022-07-09T06:20:02;14.02;;;5.10;;
39958;SDS011;25639;53.634;9.880;2022-07-09T06:22:28;10.10;;;4.63;;
39958;SDS011;25639;53.634;9.880;2022-07-09T06:24:53;8.60;;;4.18;;
39958;SDS011;25639;53.634;9.880;2022-07-09T06:27:19;11.00;;;4.70;;
39958;SDS011;25639;53.634;9.880;2022-07-09T06:29:44;13.98;;;4.53;;
39958;SDS011;25639;53.634;9.880;2022-07-09T06:32:09;11.60;;;4.15;;
39958;SDS011;25639;53.634;9.880;2022-07-09T06:34:34;8.48;;;4.32;;
39958;SDS011;25639;53.634;9.880;2022-07-09T06:37:00;10.30;;;4.00;;
39958;SDS011;25639;53.634;9.880;2022-07-09T06:39:25;10.00;;;4.70;;
39958;SDS011;25639;53.634;9.880;2022-07-09T06:42:09;11.02;;;4.10;;
39958;SDS011;25639;53.634;9.880;2022-07-09T06:44:34;7.68;;;4.25;;
39958;SDS011;25639;53.634;9.880;2022-07-09T06:47:00;6.55;;;3.75;;
39958;SDS011;25639;53.634;9.880;2022-07-09T06:49:25;11.95;;;3.80;;
39958;SDS011;25639;53.634;9.880;2022-07-09T06:51:51;12.20;;;3.95;;
39958;SDS011;25639;53.634;9.880;2022-07-09T06:54:16;9.07;;;3.30;;
39958;SDS011;25639;53.634;9.880;2022-07-09T06:56:41;7.65;;;3.50;;
39958;SDS011;25639;53.634;9.880;2022-07-09T06:59:07;12.18;;;4.25;;
39958;SDS011;25639;53.634;9.880;2022-07-09T07:01:32;15.40;;;3.83;;
39958;SDS011;25639;53.634;9.880;2022-07-09T07:03:57;7.47;;;3.20;;
39958;SDS011;25639;53.634;9.880;2022-07-09T07:06:23;10.93;;;3.38;;
39958;SDS011;25639;53.634;9.880;2022-07-09T07:08:48;8.27;;;3.30;;
39958;SDS011;25639;53.634;9.880;2022-07-09T07:11:13;7.47;;;3.72;;
39958;SDS011;25639;53.634;9.880;2022-07-09T07:13:39;10.35;;;3.50;;
39958;SDS011;25639;53.634;9.880;2022-07-09T07:16:04;7.43;;;2.97;;
39958;SDS011;25639;53.634;9.880;2022-07-09T07:18:30;5.57;;;3.10;;
39958;SDS011;25639;53.634;9.880;2022-07-09T07:20:55;7.72;;;2.80;;
39958;SDS011;25639;53.634;9.880;2022-07-09T07:23:21;12.88;;;3.45;;
39958;SDS011;25639;53.634;9.880;2022-07-09T07:25:46;12.70;;;3.15;;
39958;SDS011;25639;53.634;9.880;2022-07-09T07:28:11;10.18;;;3.03;;
39958;SDS011;25639;53.634;9.880;2022-07-09T07:30:36;10.00;;;2.90;;
39958;SDS011;25639;53.634;9.880;2022-07-09T07:33:02;8.52;;;2.83;;
39958;SDS011;25639;53.634;9.880;2022-07-09T07:35:27;5.93;;;2.47;;
39958;SDS011;25639;53.634;9.880;2022-07-09T07:37:53;6.85;;;2.97;;
39958;SDS011;25639;53.634;9.880;2022-07-09T07:40:18;8.55;;;3.05;;
39958;SDS011;25639;53.634;9.880;2022-07-09T07:42:43;6.68;;;2.85;;
39958;SDS011;25639;53.634;9.880;2022-07-09T07:45:09;6.75;;;2.47;;
39958;SDS011;25639;53.634;9.880;2022-07-09T07:47:34;7.43;;;2.10;;
39958;SDS011;25639;53.634;9.880;2022-07-09T07:50:00;5.80;;;2.45;;
39958;SDS011;25639;53.634;9.880;2022-07-09T07:52:25;6.28;;;2.40;;
39958;SDS011;25639;53.634;9.880;2022-07-09T07:54:51;5.90;;;2.40;;
39958;SDS011;25639;53.634;9.880;2022-07-09T07:57:16;9.10;;;2.55;;
39958;SDS011;25639;53.634;9.880;2022-07-09T07:59:41;5.32;;;2.10;;
39958;SDS011;25639;53.634;9.880;2022-07-09T08:02:07;3.65;;;1.70;;
39958;SDS011;25639;53.634;9.880;2022-07-09T08:04:32;6.35;;;2.33;;
39958;SDS011;25639;53.634;9.880;2022-07-09T08:06:58;4.40;;;1.90;;
39958;SDS011;25639;53.634;9.880;2022-07-09T08:09:23;8.95;;;2.22;;
39958;SDS011;25639;53.634;9.880;2022-07-09T08:11:48;5.85;;;2.13;;
39958;SDS011;25639;53.634;9.880;2022-07-09T08:14:13;8.07;;;2.25;;
39958;SDS011;25639;53.634;9.880;2022-07-09T08:16:39;7.18;;;2.00;;
39958;SDS011;25639;53.634;9.880;2022-07-09T08:19:04;10.60;;;2.67;;
39958;SDS011;25639;53.634;9.880;2022-07-09T08:21:29;4.13;;;2.03;;
39958;SDS011;25639;53.634;9.880;2022-07-09T08:23:55;5.25;;;1.90;;
39958;SDS011;25639;53.634;9.880;2022-07-09T08:26:21;6.90;;;2.13;;
39958;SDS011;25639;53.634;9.880;2022-07-09T08:28:48;4.95;;;1.77;;
39958;SDS011;25639;53.634;9.880;2022-07-09T08:31:15;6.80;;;1.65;;
39958;SDS011;25639;53.634;9.880;2022-07-09T08:33:40;3.58;;;1.80;;
39958;SDS011;25639;53.634;9.880;2022-07-09T08:36:06;3.80;;;1.60;;
39958;SDS011;25639;53.634;9.880;2022-07-09T08:38:31;4.15;;;1.73;;
39958;SDS011;25639;53.634;9.880;2022-07-09T08:40:57;4.80;;;1.70;;
39958;SDS011;25639;53.634;9.880;2022-07-09T08:43:25;4.07;;;1.33;;
39958;SDS011;25639;53.634;9.880;2022-07-09T08:45:54;5.78;;;1.50;;
39958;SDS011;25639;53.634;9.880;2022-07-09T08:48:21;6.28;;;1.20;;
39958;SDS011;25639;53.634;9.880;2022-07-09T08:50:48;5.18;;;1.48;;
39958;SDS011;25639;53.634;9.880;2022-07-09T08:53:13;2.50;;;1.13;;
39958;SDS011;25639;53.634;9.880;2022-07-09T08:55:42;2.78;;;1.02;;
39958;SDS011;25639;53.634;9.880;2022-07-09T08:58:08;3.80;;;1.15;;
39958;SDS011;25639;53.634;9.880;2022-07-09T09:00:36;4.72;;;1.38;;
39958;SDS011;25639;53.634;9.880;2022-07-09T09:03:02;4.93;;;1.48;;
39958;SDS011;25639;53.634;9.880;2022-07-09T09:05:27;3.22;;;1.15;;
39958;SDS011;25639;53.634;9.880;2022-07-09T09:07:52;4.20;;;1.20;;
39958;SDS011;25639;53.634;9.880;2022-07-09T09:10:25;3.40;;;1.10;;
39958;SDS011;25639;53.634;9.880;2022-07-09T09:15:21;5.55;;;1.55;;
39958;SDS011;25639;53.634;9.880;2022-07-09T09:17:46;4.45;;;1.50;;
39958;SDS011;25639;53.634;9.880;2022-07-09T09:20:15;2.90;;;1.40;;
39958;SDS011;25639;53.634;9.880;2022-07-09T09:22:48;4.03;;;1.50;;
39958;SDS011;25639;53.634;9.880;2022-07-09T09:25:17;2.97;;;1.20;;
39958;SDS011;25639;53.634;9.880;2022-07-09T09:27:53;4.30;;;1.15;;
39958;SDS011;25639;53.634;9.880;2022-07-09T09:30:25;4.38;;;1.45;;
39958;SDS011;25639;53.634;9.880;2022-07-09T09:32:58;6.28;;;1.30;;
39958;SDS011;25639;53.634;9.880;2022-07-09T09:35:28;4.32;;;1.35;;
39958;SDS011;25639;53.634;9.880;2022-07-09T09:37:55;4.28;;;1.27;;
39958;SDS011;25639;53.634;9.880;2022-07-09T09:40:21;7.05;;;1.60;;
39958;SDS011;25639;53.634;9.880;2022-07-09T09:42:48;4.18;;;1.30;;
39958;SDS011;25639;53.634;9.880;2022-07-09T09:45:14;5.13;;;0.90;;
39958;SDS011;25639;53.634;9.880;2022-07-09T09:47:43;6.03;;;1.10;;
39958;SDS011;25639;53.634;9.880;2022-07-09T09:50:12;6.15;;;1.40;;
39958;SDS011;25639;53.634;9.880;2022-07-09T09:52:42;5.28;;;1.77;;
39958;SDS011;25639;53.634;9.880;2022-07-09T09:55:10;6.15;;;1.38;;
39958;SDS011;25639;53.634;9.880;2022-07-09T09:57:37;2.67;;;1.02;;
39958;SDS011;25639;53.634;9.880;2022-07-09T10:00:04;5.32;;;1.30;;
39958;SDS011;25639;53.634;9.880;2022-07-09T10:02:30;2.28;;;0.95;;
39958;SDS011;25639;53.634;9.880;2022-07-09T10:04:56;2.15;;;0.80;;
39958;SDS011;25639;53.634;9.880;2022-07-09T10:07:22;5.95;;;1.33;;
39958;SDS011;25639;53.634;9.880;2022-07-09T10:09:54;4.63;;;1.10;;
39958;SDS011;25639;53.634;9.880;2022-07-09T10:12:28;4.65;;;1.10;;
39958;SDS011;25639;53.634;9.880;2022-07-09T10:14:55;7.72;;;1.33;;
39958;SDS011;25639;53.634;9.880;2022-07-09T10:17:22;5.05;;;1.10;;
39958;SDS011;25639;53.634;9.880;2022-07-09T10:19:56;5.25;;;1.02;;
39958;SDS011;25639;53.634;9.880;2022-07-09T10:22:42;7.25;;;1.27;;
39958;SDS011;25639;53.634;9.880;2022-07-09T10:25:10;2.88;;;1.10;;
39958;SDS011;25639;53.634;9.880;2022-07-09T10:27:48;4.00;;;0.93;;
39958;SDS011;25639;53.634;9.880;2022-07-09T10:35:26;2.05;;;0.60;;
39958;SDS011;25639;53.634;9.880;2022-07-09T10:37:53;2.92;;;1.02;;
39958;SDS011;25639;53.634;9.880;2022-07-09T10:40:19;5.32;;;1.27;;
39958;SDS011;25639;53.634;9.880;2022-07-09T10:42:57;5.20;;;1.30;;
39958;SDS011;25639;53.634;9.880;2022-07-09T10:45:25;3.40;;;1.00;;
39958;SDS011;25639;53.634;9.880;2022-07-09T10:47:56;6.60;;;1.42;;
39958;SDS011;25639;53.634;9.880;2022-07-09T10:50:23;6.35;;;1.25;;
39958;SDS011;25639;53.634;9.880;2022-07-09T10:52:50;4.07;;;1.30;;
39958;SDS011;25639;53.634;9.880;2022-07-09T10:55:16;3.75;;;1.20;;
39958;SDS011;25639;53.634;9.880;2022-07-09T10:57:43;4.30;;;1.10;;
39958;SDS011;25639;53.634;9.880;2022-07-09T11:00:08;4.03;;;1.30;;
39958;SDS011;25639;53.634;9.880;2022-07-09T11:02:35;2.85;;;1.05;;
39958;SDS011;25639;53.634;9.880;2022-07-09T11:05:00;1.17;;;0.80;;
39958;SDS011;25639;53.634;9.880;2022-07-09T11:07:25;3.42;;;1.05;;
39958;SDS011;25639;53.634;9.880;2022-07-09T11:09:52;5.40;;;1.02;;
39958;SDS011;25639;53.634;9.880;2022-07-09T11:12:18;3.55;;;0.90;;
39958;SDS011;25639;53.634;9.880;2022-07-09T11:14:45;2.83;;;0.98;;
39958;SDS011;25639;53.634;9.880;2022-07-09T11:17:19;4.60;;;0.80;;
39958;SDS011;25639;53.634;9.880;2022-07-09T11:19:46;3.15;;;1.00;;
39958;SDS011;25639;53.634;9.880;2022-07-09T11:22:14;4.50;;;0.93;;
39958;SDS011;25639;53.634;9.880;2022-07-09T11:24:40;4.15;;;0.80;;
39958;SDS011;25639;53.634;9.880;2022-07-09T11:27:06;2.17;;;0.90;;
39958;SDS011;25639;53.634;9.880;2022-07-09T11:29:33;2.22;;;0.77;;
39958;SDS011;25639;53.634;9.880;2022-07-09T11:32:00;3.63;;;1.10;;
39958;SDS011;25639;53.634;9.880;2022-07-09T11:34:26;4.80;;;0.98;;
39958;SDS011;25639;53.634;9.880;2022-07-09T11:36:54;6.43;;;1.02;;
39958;SDS011;25639;53.634;9.880;2022-07-09T11:41:59;3.25;;;0.80;;
39958;SDS011;25639;53.634;9.880;2022-07-09T11:44:29;1.73;;;0.80;;
39958;SDS011;25639;53.634;9.880;2022-07-09T11:47:05;1.83;;;0.80;;
39958;SDS011;25639;53.634;9.880;2022-07-09T11:52:04;3.78;;;0.77;;
39958;SDS011;25639;53.634;9.880;2022-07-09T11:54:53;1.60;;;1.00;;
39958;SDS011;25639;53.634;9.880;2022-07-09T11:57:21;3.40;;;1.00;;
39958;SDS011;25639;53.634;9.880;2022-07-09T11:59:47;2.50;;;0.90;;
39958;SDS011;25639;53.634;9.880;2022-07-09T12:02:21;3.28;;;0.95;;
39958;SDS011;25639;53.634;9.880;2022-07-09T12:04:57;3.25;;;1.33;;
39958;SDS011;25639;53.634;9.880;2022-07-09T12:07:24;2.53;;;1.08;;
39958;SDS011;25639;53.634;9.880;2022-07-09T12:09:59;5.22;;;1.50;;
39958;SDS011;25639;53.634;9.880;2022-07-09T12:12:35;7.45;;;1.25;;
39958;SDS011;25639;53.634;9.880;2022-07-09T12:15:01;4.45;;;1.17;;
39958;SDS011;25639;53.634;9.880;2022-07-09T12:17:29;4.75;;;1.30;;
39958;SDS011;25639;53.634;9.880;2022-07-09T12:19:56;7.70;;;1.33;;
39958;SDS011;25639;53.634;9.880;2022-07-09T12:22:23;6.82;;;1.45;;
39958;SDS011;25639;53.634;9.880;2022-07-09T12:24:50;4.90;;;1.20;;
39958;SDS011;25639;53.634;9.880;2022-07-09T12:27:16;5.93;;;1.20;;
39958;SDS011;25639;53.634;9.880;2022-07-09T12:29:41;6.60;;;1.30;;
39958;SDS011;25639;53.634;9.880;2022-07-09T12:32:07;4.63;;;1.20;;
39958;SDS011;25639;53.634;9.880;2022-07-09T12:34:33;6.72;;;1.48;;
39958;SDS011;25639;53.634;9.880;2022-07-09T12:36:59;6.40;;;1.00;;
39958;SDS011;25639;53.634;9.880;2022-07-09T12:39:24;9.98;;;1.38;;
39958;SDS011;25639;53.634;9.880;2022-07-09T12:41:50;7.75;;;1.50;;
39958;SDS011;25639;53.634;9.880;2022-07-09T12:44:15;7.80;;;1.10;;
39958;SDS011;25639;53.634;9.880;2022-07-09T12:46:40;3.67;;;1.17;;
39958;SDS011;25639;53.634;9.880;2022-07-09T12:49:06;4.78;;;1.20;;
39958;SDS011;25639;53.634;9.880;2022-07-09T12:51:32;5.90;;;1.40;;
39958;SDS011;25639;53.634;9.880;2022-07-09T12:53:58;5.38;;;1.20;;
39958;SDS011;25639;53.634;9.880;2022-07-09T12:56:23;6.07;;;1.38;;
39958;SDS011;25639;53.634;9.880;2022-07-09T12:58:48;5.25;;;1.02;;
39958;SDS011;25639;53.634;9.880;2022-07-09T13:01:14;4.90;;;1.10;;
39958;SDS011;25639;53.634;9.880;2022-07-09T13:03:39;3.85;;;1.13;;
39958;SDS011;25639;53.634;9.880;2022-07-09T13:06:04;2.42;;;1.00;;
39958;SDS011;25639;53.634;9.880;2022-07-09T13:08:50;8.82;;;1.30;;
39958;SDS011;25639;53.634;9.880;2022-07-09T13:11:15;5.60;;;1.20;;
39958;SDS011;25639;53.634;9.880;2022-07-09T13:13:40;3.63;;;1.02;;
39958;SDS011;25639;53.634;9.880;2022-07-09T13:16:06;6.18;;;1.20;;
39958;SDS011;25639;53.634;9.880;2022-07-09T13:18:31;5.28;;;0.98;;
39958;SDS011;25639;53.634;9.880;2022-07-09T13:20:56;5.60;;;1.00;;
39958;SDS011;25639;53.634;9.880;2022-07-09T13:23:22;4.30;;;1.05;;
39958;SDS011;25639;53.634;9.880;2022-07-09T13:25:47;6.72;;;1.15;;
39958;SDS011;25639;53.634;9.880;2022-07-09T13:28:12;3.83;;;1.15;;
39958;SDS011;25639;53.634;9.880;2022-07-09T13:30:38;4.93;;;1.27;;
39958;SDS011;25639;53.634;9.880;2022-07-09T13:33:03;6.68;;;1.00;;
39958;SDS011;25639;53.634;9.880;2022-07-09T13:35:28;5.40;;;0.98;;
39958;SDS011;25639;53.634;9.880;2022-07-09T13:37:54;4.20;;;0.95;;
39958;SDS011;25639;53.634;9.880;2022-07-09T13:40:19;6.57;;;0.98;;
39958;SDS011;25639;53.634;9.880;2022-07-09T13:42:44;8.70;;;1.20;;
39958;SDS011;25639;53.634;9.880;2022-07-09T13:45:10;13.77;;;1.35;;
39958;SDS011;25639;53.634;9.880;2022-07-09T13:47:35;9.20;;;0.90;;
39958;SDS011;25639;53.634;9.880;2022-07-09T13:50:00;6.95;;;1.30;;
39958;SDS011;25639;53.634;9.880;2022-07-09T13:52:26;8.05;;;1.38;;
39958;SDS011;25639;53.634;9.880;2022-07-09T13:54:51;6.47;;;1.15;;
39958;SDS011;25639;53.634;9.880;2022-07-09T13:57:16;6.10;;;1.10;;
39958;SDS011;25639;53.634;9.880;2022-07-09T13:59:42;8.50;;;1.35;;
39958;SDS011;25639;53.634;9.880;2022-07-09T14:02:07;5.50;;;1.30;;
39958;SDS011;25639;53.634;9.880;2022-07-09T14:04:32;6.65;;;1.40;;
39958;SDS011;25639;53.634;9.880;2022-07-09T14:06:57;7.03;;;1.25;;
39958;SDS011;25639;53.634;9.880;2022-07-09T14:09:23;7.57;;;1.38;;
39958;SDS011;25639;53.634;9.880;2022-07-09T14:11:48;7.28;;;1.20;;
39958;SDS011;25639;53.634;9.880;2022-07-09T14:14:14;7.75;;;1.13;;
39958;SDS011;25639;53.634;9.880;2022-07-09T14:16:39;3.85;;;1.05;;
39958;SDS011;25639;53.634;9.880;2022-07-09T14:19:05;6.70;;;1.17;;
39958;SDS011;25639;53.634;9.880;2022-07-09T14:21:30;3.60;;;0.93;;
39958;SDS011;25639;53.634;9.880;2022-07-09T14:23:55;3.90;;;1.15;;
39958;SDS011;25639;53.634;9.880;2022-07-09T14:26:21;5.43;;;0.90;;
39958;SDS011;25639;53.634;9.880;2022-07-09T14:28:46;7.18;;;1.23;;
39958;SDS011;25639;53.634;9.880;2022-07-09T14:31:12;8.23;;;1.25;;
39958;SDS011;25639;53.634;9.880;2022-07-09T14:33:37;5.80;;;1.30;;
39958;SDS011;25639;53.634;9.880;2022-07-09T14:36:03;5.63;;;1.40;;
39958;SDS011;25639;53.634;9.880;2022-07-09T14:38:29;7.97;;;2.30;;
39958;SDS011;25639;53.634;9.880;2022-07-09T14:40:54;11.20;;;1.73;;
39958;SDS011;25639;53.634;9.880;2022-07-09T14:43:19;9.15;;;1.80;;
39958;SDS011;25639;53.634;9.880;2022-07-09T14:45:45;6.35;;;1.52;;
39958;SDS011;25639;53.634;9.880;2022-07-09T14:48:10;7.45;;;1.55;;